Time;durP1;ratioP1;P1;durP2;ratioP2;P2;SDS_P1;SDS_P2;PMS_P1;PMS_P2;Temp;Humidity;BMP_temperature;BMP_pressure;BME280_temperature;BME280_humidity;BME280_pressure;Samples;Min_cycle;Max_cycle;Signal;HPM_P1;HPM_P2
2021/03/01 00:02:16;;;;;;;11.02;5.75;;;4.40;99.90;;;;;;5089657;28;20031;-64
2021/03/01 00:05:20;;;;;;;9.30;5.45;;;4.40;99.90;;;;;;5088345;28;20043;-63
2021/03/01 00:08:24;;;;;;;13.15;7.07;;;4.40;99.90;;;;;;5088906;28;20062;-63
2021/03/01 00:11:28;;;;;;;13.93;5.57;;;4.40;99.90;;;;;;5088861;28;20055;-63
2021/03/01 00:14:32;;;;;;;8.85;3.85;;;4.30;99.90;;;;;;5088753;28;20055;-62
2021/03/01 00:17:38;;;;;;;5.43;3.47;;;4.30;99.90;;;;;;5089179;28;20463;-64
2021/03/01 00:20:42;;;;;;;14.63;6.07;;;4.40;99.90;;;;;;5088864;28;20391;-63
2021/03/01 00:23:47;;;;;;;10.00;5.60;;;4.40;99.90;;;;;;5088375;28;20043;-63
2021/03/01 00:26:51;;;;;;;13.30;5.90;;;4.40;99.90;;;;;;5089375;28;20106;-63
2021/03/01 00:29:56;;;;;;;17.52;8.10;;;4.40;99.90;;;;;;5088644;28;20047;-63
2021/03/01 00:33:00;;;;;;;14.07;6.43;;;4.20;99.90;;;;;;5089421;28;20058;-63
2021/03/01 00:36:04;;;;;;;18.10;6.53;;;4.10;99.90;;;;;;5088803;28;20051;-64
2021/03/01 00:39:09;;;;;;;9.98;5.75;;;4.10;99.90;;;;;;5088337;28;20414;-63
2021/03/01 00:42:13;;;;;;;15.02;6.65;;;4.00;99.90;;;;;;5089141;28;20044;-63
2021/03/01 00:45:27;;;;;;;14.55;7.20;;;4.00;99.90;;;;;;5091705;28;20043;-62
2021/03/01 00:48:31;;;;;;;10.35;6.40;;;4.00;99.90;;;;;;5091968;28;20047;-63
2021/03/01 00:51:35;;;;;;;12.45;7.03;;;4.00;99.90;;;;;;5092959;28;20046;-64
2021/03/01 00:54:39;;;;;;;21.42;13.15;;;4.00;99.90;;;;;;5091288;28;20042;-64
2021/03/01 00:57:43;;;;;;;17.77;8.80;;;4.00;99.90;;;;;;5092711;28;20118;-64
2021/03/01 01:00:54;;;;;;;16.08;8.00;;;3.90;99.90;;;;;;5091622;28;20055;-63
2021/03/01 01:04:04;;;;;;;16.33;7.30;;;3.90;99.90;;;;;;5083290;28;20059;-63
2021/03/01 01:07:09;;;;;;;19.17;8.52;;;3.90;99.90;;;;;;5091811;28;20051;-63
2021/03/01 01:10:13;;;;;;;16.95;8.48;;;3.80;99.90;;;;;;5092228;28;20402;-64
2021/03/01 01:13:17;;;;;;;15.80;8.70;;;3.80;99.90;;;;;;5092536;28;20502;-63
2021/03/01 01:16:20;;;;;;;20.02;11.00;;;3.70;99.90;;;;;;5091715;28;20051;-63
2021/03/01 01:19:24;;;;;;;19.83;11.15;;;3.60;99.90;;;;;;5092186;28;20047;-63
2021/03/01 01:22:29;;;;;;;22.75;11.43;;;3.70;99.90;;;;;;5081430;28;20039;-62
2021/03/01 01:25:34;;;;;;;17.60;9.23;;;3.70;99.90;;;;;;5078399;28;20517;-63
2021/03/01 01:28:38;;;;;;;21.88;10.68;;;3.60;99.90;;;;;;5091808;28;20043;-63
2021/03/01 01:31:42;;;;;;;16.95;7.45;;;3.50;99.90;;;;;;5092012;28;20047;-62
2021/03/01 01:34:46;;;;;;;14.75;6.25;;;3.50;99.90;;;;;;5091621;28;20529;-63
2021/03/01 01:37:51;;;;;;;12.95;6.25;;;3.50;99.90;;;;;;5092266;28;20402;-63
2021/03/01 01:40:55;;;;;;;9.10;5.13;;;3.70;99.90;;;;;;5091355;28;20039;-63
2021/03/01 01:43:59;;;;;;;11.50;5.25;;;4.00;99.90;;;;;;5091761;28;20036;-63
2021/03/01 01:47:03;;;;;;;9.98;5.25;;;4.00;99.90;;;;;;5091927;28;20051;-63
2021/03/01 01:50:09;;;;;;;13.90;5.22;;;4.00;99.90;;;;;;5091479;28;20036;-63
2021/03/01 01:53:13;;;;;;;10.07;5.50;;;4.00;99.90;;;;;;5092011;28;20517;-63
2021/03/01 01:56:17;;;;;;;9.68;5.68;;;3.90;99.90;;;;;;5090709;28;20039;-62
2021/03/01 01:59:21;;;;;;;9.57;6.00;;;3.80;99.90;;;;;;5091580;28;20044;-62
2021/03/01 02:02:26;;;;;;;23.35;11.63;;;3.70;99.90;;;;;;5091902;28;20028;-63
2021/03/01 02:05:31;;;;;;;23.02;12.70;;;3.60;99.90;;;;;;5091087;28;20043;-64
2021/03/01 02:09:02;;;;;;;20.30;11.30;;;3.60;99.90;;;;;;5078574;28;20043;-63
2021/03/01 02:12:18;;;;;;;20.83;11.07;;;3.50;99.90;;;;;;5079042;28;20050;-63
2021/03/01 02:15:52;;;;;;;17.23;8.85;;;3.40;99.90;;;;;;5075587;28;20031;-62
2021/03/01 02:18:58;;;;;;;17.02;8.02;;;3.30;99.90;;;;;;5070090;28;20048;-62
2021/03/01 02:22:02;;;;;;;14.38;8.40;;;3.30;99.90;;;;;;5090757;28;20073;-63
2021/03/01 02:25:14;;;;;;;17.75;8.45;;;3.30;99.90;;;;;;5090939;28;20394;-64
2021/03/01 02:28:22;;;;;;;15.57;7.10;;;3.30;99.90;;;;;;5091242;28;20039;-63
2021/03/01 02:31:27;;;;;;;16.13;9.25;;;3.30;99.90;;;;;;5091070;28;20046;-64
2021/03/01 02:34:36;;;;;;;18.35;9.32;;;3.20;99.90;;;;;;5091285;28;20055;-64
2021/03/01 02:37:42;;;;;;;15.48;7.57;;;3.20;99.90;;;;;;5090886;28;20051;-64
2021/03/01 02:40:46;;;;;;;14.45;7.50;;;3.10;99.90;;;;;;5091129;28;20042;-63
2021/03/01 02:43:52;;;;;;;14.32;7.55;;;3.00;99.90;;;;;;5091197;28;20051;-63
2021/03/01 02:46:58;;;;;;;18.48;9.18;;;3.00;99.90;;;;;;5090838;28;20047;-63
2021/03/01 02:50:05;;;;;;;21.40;10.43;;;3.10;99.90;;;;;;5086156;28;20055;-63
2021/03/01 02:53:12;;;;;;;17.92;9.98;;;3.10;99.90;;;;;;5089959;28;20051;-63
2021/03/01 02:56:18;;;;;;;17.10;7.75;;;3.20;99.90;;;;;;5090660;28;20406;-63
2021/03/01 02:59:25;;;;;;;22.60;11.75;;;3.00;99.90;;;;;;5090520;28;20051;-63
2021/03/01 03:02:30;;;;;;;14.85;8.82;;;2.90;99.90;;;;;;5074326;28;20443;-63
2021/03/01 03:05:39;;;;;;;18.77;7.65;;;2.80;99.90;;;;;;5081417;28;20047;-62
2021/03/01 03:08:45;;;;;;;15.10;6.15;;;2.70;99.90;;;;;;5079535;28;20044;-63
2021/03/01 03:11:51;;;;;;;10.68;5.85;;;2.60;99.90;;;;;;5077882;28;20040;-62
2021/03/01 03:14:58;;;;;;;17.35;8.38;;;2.50;99.90;;;;;;5079833;28;20031;-63
2021/03/01 03:18:03;;;;;;;18.50;7.00;;;2.50;99.90;;;;;;5077226;28;20042;-64
2021/03/01 03:21:08;;;;;;;14.18;6.65;;;2.30;99.90;;;;;;5079119;28;20038;-64
2021/03/01 03:24:13;;;;;;;11.57;5.95;;;2.30;99.90;;;;;;5076270;28;20043;-63
2021/03/01 03:27:17;;;;;;;8.95;5.05;;;2.20;99.90;;;;;;5089667;28;20059;-64
2021/03/01 03:30:22;;;;;;;12.25;5.80;;;2.20;99.90;;;;;;5081116;28;20044;-63
2021/03/01 03:33:26;;;;;;;12.80;6.65;;;2.20;99.90;;;;;;5078849;28;20043;-64
2021/03/01 03:36:35;;;;;;;11.27;5.35;;;2.30;99.90;;;;;;5076023;28;20046;-65
2021/03/01 03:39:45;;;;;;;10.15;5.57;;;2.40;99.90;;;;;;5082579;28;20039;-65
2021/03/01 03:42:49;;;;;;;10.88;4.88;;;2.50;99.90;;;;;;5086353;28;20510;-63
2021/03/01 03:45:59;;;;;;;9.00;5.00;;;2.50;99.90;;;;;;5088836;28;20039;-63
2021/03/01 03:49:06;;;;;;;8.88;5.03;;;2.50;99.90;;;;;;5083429;28;20040;-64
2021/03/01 03:52:15;;;;;;;11.82;4.88;;;2.60;99.90;;;;;;5089778;28;20035;-64
2021/03/01 03:55:22;;;;;;;13.30;5.82;;;2.70;99.90;;;;;;5075952;28;20446;-64
2021/03/01 03:58:32;;;;;;;12.48;5.75;;;2.70;99.90;;;;;;5086817;28;20509;-64
2021/03/01 04:01:38;;;;;;;9.88;6.00;;;2.60;99.90;;;;;;5074601;28;20514;-63
2021/03/01 04:04:44;;;;;;;11.18;5.25;;;2.60;99.90;;;;;;5083151;28;20040;-64
2021/03/01 04:07:50;;;;;;;9.27;5.32;;;2.60;99.90;;;;;;5071441;28;20047;-64
2021/03/01 04:10:55;;;;;;;10.73;5.60;;;2.70;99.90;;;;;;5084263;28;20048;-62
2021/03/01 04:14:00;;;;;;;11.15;5.28;;;2.70;99.90;;;;;;5076029;28;20399;-64
2021/03/01 04:17:10;;;;;;;13.57;6.88;;;2.80;99.90;;;;;;5089218;28;20422;-63
2021/03/01 04:20:18;;;;;;;13.95;6.55;;;2.80;99.90;;;;;;5092493;28;20460;-64
2021/03/01 04:23:24;;;;;;;12.38;6.30;;;2.70;99.90;;;;;;5093602;28;20051;-64
2021/03/01 04:26:28;;;;;;;9.23;4.40;;;2.60;99.90;;;;;;5083644;28;20047;-64
2021/03/01 04:29:34;;;;;;;14.80;5.10;;;2.70;99.90;;;;;;5080989;28;20395;-64
2021/03/01 04:32:43;;;;;;;7.70;4.22;;;2.70;99.90;;;;;;5092525;28;20517;-64
2021/03/01 04:35:49;;;;;;;8.88;4.00;;;2.60;99.90;;;;;;5080463;28;20036;-64
2021/03/01 04:38:53;;;;;;;14.55;5.65;;;2.60;99.90;;;;;;5083080;28;20036;-64
2021/03/01 04:41:57;;;;;;;15.63;7.30;;;2.40;99.90;;;;;;5085829;28;20035;-64
2021/03/01 04:45:02;;;;;;;17.42;7.18;;;2.30;99.90;;;;;;5077556;28;20047;-64
2021/03/01 04:48:09;;;;;;;14.80;6.80;;;2.20;99.90;;;;;;5079433;28;20403;-64
2021/03/01 04:51:15;;;;;;;17.75;5.90;;;2.30;99.90;;;;;;5080612;28;20039;-63
2021/03/01 04:54:21;;;;;;;18.45;7.70;;;2.30;99.90;;;;;;5078097;28;20043;-63
2021/03/01 04:57:26;;;;;;;12.85;6.97;;;2.30;99.90;;;;;;5083707;28;20039;-64
2021/03/01 05:00:31;;;;;;;13.88;7.05;;;2.40;99.90;;;;;;5076914;28;20051;-62
2021/03/01 05:03:38;;;;;;;14.07;5.88;;;2.50;99.90;;;;;;5076616;28;20047;-62
2021/03/01 05:06:43;;;;;;;15.57;8.15;;;2.60;99.90;;;;;;5080694;28;20517;-64
2021/03/01 05:09:47;;;;;;;17.73;9.15;;;2.70;99.90;;;;;;5078564;28;20047;-64
2021/03/01 05:12:53;;;;;;;14.57;8.13;;;2.60;99.90;;;;;;5072427;28;20051;-63
2021/03/01 05:15:57;;;;;;;12.90;6.43;;;2.50;99.90;;;;;;5092669;28;20041;-62
2021/03/01 05:19:00;;;;;;;10.50;5.82;;;2.40;99.90;;;;;;5091449;28;20035;-63
2021/03/01 05:22:04;;;;;;;14.27;6.45;;;2.30;99.90;;;;;;5083411;28;20522;-64
2021/03/01 05:25:10;;;;;;;12.07;5.82;;;2.20;99.90;;;;;;5092024;28;20035;-63
2021/03/01 05:28:14;;;;;;;14.25;8.45;;;2.10;99.90;;;;;;5091587;28;20035;-64
2021/03/01 05:31:18;;;;;;;13.38;7.13;;;2.00;99.90;;;;;;5081497;28;20043;-62
2021/03/01 05:34:23;;;;;;;13.50;7.38;;;2.00;99.90;;;;;;5079708;28;20043;-63
2021/03/01 05:37:27;;;;;;;14.55;6.97;;;1.90;99.90;;;;;;5075066;28;20051;-64
2021/03/01 05:40:31;;;;;;;18.77;9.70;;;1.80;99.90;;;;;;5072017;28;20063;-63
2021/03/01 05:43:36;;;;;;;17.42;8.55;;;1.80;99.90;;;;;;5074344;28;20055;-63
2021/03/01 05:46:42;;;;;;;16.52;8.13;;;1.70;99.90;;;;;;5074057;28;20075;-64
2021/03/01 05:49:48;;;;;;;17.30;9.73;;;1.70;99.90;;;;;;5085341;28;20525;-62
2021/03/01 05:52:59;;;;;;;23.52;13.63;;;1.70;99.90;;;;;;5081827;28;20043;-64
2021/03/01 05:56:04;;;;;;;35.17;16.85;;;1.60;99.90;;;;;;5080153;28;20051;-64
2021/03/01 05:59:09;;;;;;;26.08;13.73;;;1.60;99.90;;;;;;5082649;28;20040;-63
2021/03/01 06:02:16;;;;;;;33.17;17.40;;;1.60;99.90;;;;;;5079312;28;20509;-64
2021/03/01 06:05:20;;;;;;;39.10;20.58;;;1.60;99.90;;;;;;5076752;28;20043;-64
2021/03/01 06:08:25;;;;;;;24.75;14.57;;;1.70;99.90;;;;;;5075773;28;20537;-63
2021/03/01 06:11:30;;;;;;;10.70;5.90;;;1.70;99.90;;;;;;5074090;28;20035;-64
2021/03/01 06:14:35;;;;;;;10.15;5.80;;;1.70;99.90;;;;;;5080482;28;20038;-64
2021/03/01 06:17:39;;;;;;;11.35;6.03;;;1.60;99.90;;;;;;5091114;28;20038;-64
2021/03/01 06:20:43;;;;;;;18.38;8.90;;;1.70;99.90;;;;;;5091200;28;20047;-64
2021/03/01 06:23:48;;;;;;;27.52;15.32;;;1.70;99.90;;;;;;5089166;28;20054;-63
2021/03/01 06:26:57;;;;;;;24.75;14.15;;;1.80;99.90;;;;;;5085344;28;20077;-64
2021/03/01 06:30:08;;;;;;;34.15;15.77;;;2.00;99.90;;;;;;5081101;28;20055;-64
2021/03/01 06:33:17;;;;;;;30.77;17.70;;;2.20;99.90;;;;;;5074006;28;20055;-64
2021/03/01 06:36:21;;;;;;;31.08;17.48;;;3.70;99.90;;;;;;5077386;28;20091;-63
2021/03/01 06:39:42;;;;;;;48.58;24.02;;;7.50;99.90;;;;;;5070491;28;20391;-64
2021/03/01 06:42:47;;;;;;;46.17;24.88;;;11.20;98.10;;;;;;5073179;28;20406;-64
2021/03/01 06:46:12;;;;;;;31.10;18.33;;;14.20;92.90;;;;;;5073731;28;20036;-63
2021/03/01 06:49:17;;;;;;;26.42;15.93;;;17.00;83.50;;;;;;5077253;28;20044;-64
2021/03/01 06:52:38;;;;;;;36.58;21.00;;;18.60;74.80;;;;;;5078397;28;20051;-64
2021/03/01 06:55:56;;;;;;;26.00;16.63;;;19.70;69.90;;;;;;5074679;28;20048;-65
2021/03/01 06:59:18;;;;;;;19.48;12.50;;;20.60;63.50;;;;;;5076311;28;20044;-63
2021/03/01 07:02:41;;;;;;;24.45;13.80;;;21.60;59.20;;;;;;5072005;28;20502;-64
2021/03/01 07:05:50;;;;;;;13.50;7.38;;;21.80;55.40;;;;;;5075184;28;20044;-64
2021/03/01 07:08:55;;;;;;;9.05;5.93;;;21.10;54.10;;;;;;5075249;28;20513;-63
2021/03/01 07:12:00;;;;;;;12.50;6.80;;;21.30;54.30;;;;;;5080052;28;20039;-64
2021/03/01 07:15:10;;;;;;;13.75;8.38;;;22.30;53.20;;;;;;5075988;28;20039;-64
2021/03/01 07:18:14;;;;;;;11.70;8.82;;;22.90;51.80;;;;;;5075434;28;20047;-64
2021/03/01 07:21:20;;;;;;;20.63;9.13;;;23.80;51.20;;;;;;5083652;28;20060;-64
2021/03/01 07:24:27;;;;;;;17.38;9.88;;;23.70;49.50;;;;;;5075368;28;20399;-65
2021/03/01 07:27:36;;;;;;;15.75;8.60;;;23.90;50.10;;;;;;5080188;28;20047;-65
2021/03/01 07:30:45;;;;;;;15.15;8.80;;;24.30;48.80;;;;;;5075965;28;20114;-64
2021/03/01 07:33:50;;;;;;;13.77;7.60;;;24.60;47.70;;;;;;5081611;28;20074;-65
2021/03/01 07:36:56;;;;;;;8.32;5.85;;;25.10;47.80;;;;;;5082817;28;20047;-64
2021/03/01 07:40:00;;;;;;;9.75;4.90;;;24.80;47.80;;;;;;5078995;28;20039;-64
2021/03/01 07:43:06;;;;;;;7.55;4.60;;;20.90;48.70;;;;;;5073405;28;20513;-63
2021/03/01 07:46:11;;;;;;;7.03;5.05;;;20.30;51.60;;;;;;5078906;28;20039;-65
2021/03/01 07:49:42;;;;;;;8.05;4.75;;;20.80;51.30;;;;;;5076275;28;20063;-65
2021/03/01 07:52:46;;;;;;;8.68;5.30;;;21.70;50.50;;;;;;5075263;28;20039;-64
2021/03/01 07:55:55;;;;;;;7.97;5.15;;;22.90;48.10;;;;;;5078866;28;20054;-64
2021/03/01 07:59:01;;;;;;;8.40;6.10;;;23.20;46.70;;;;;;5077065;28;20403;-64
2021/03/01 08:02:09;;;;;;;12.52;7.43;;;23.50;47.20;;;;;;5078864;28;20123;-64
2021/03/01 08:05:27;;;;;;;9.23;5.55;;;23.10;47.00;;;;;;5075471;28;20513;-64
2021/03/01 08:08:53;;;;;;;9.55;6.43;;;18.80;50.00;;;;;;5076259;28;20513;-64
2021/03/01 08:11:57;;;;;;;11.38;5.82;;;16.40;56.00;;;;;;5077016;28;20044;-62
2021/03/01 08:15:03;;;;;;;11.38;6.05;;;16.90;57.70;;;;;;5078718;28;20051;-63
2021/03/01 08:18:09;;;;;;;8.93;5.43;;;18.00;57.00;;;;;;5078182;28;20402;-64
2021/03/01 08:21:14;;;;;;;11.45;6.43;;;18.80;53.80;;;;;;5074873;28;21191;-64
2021/03/01 08:24:47;;;;;;;14.87;6.93;;;18.40;53.40;;;;;;5076368;28;20541;-64
2021/03/01 08:27:52;;;;;;;8.10;5.55;;;17.50;55.80;;;;;;5070591;28;20787;-63
2021/03/01 08:31:08;;;;;;;8.73;5.15;;;17.30;55.00;;;;;;5073044;28;20039;-64
2021/03/01 08:34:23;;;;;;;8.27;5.97;;;18.10;53.60;;;;;;5073308;28;20047;-64
2021/03/01 08:37:47;;;;;;;9.40;4.40;;;17.60;54.60;;;;;;5074096;28;20414;-63
2021/03/01 08:40:53;;;;;;;7.65;5.00;;;17.20;51.50;;;;;;5072765;28;20039;-64
2021/03/01 08:43:58;;;;;;;7.40;5.20;;;17.50;53.40;;;;;;5074373;28;20043;-64
2021/03/01 08:47:03;;;;;;;9.65;4.78;;;19.30;53.90;;;;;;5081792;28;20039;-64
2021/03/01 08:50:08;;;;;;;7.63;4.22;;;19.70;50.40;;;;;;5072933;28;20514;-64
2021/03/01 08:53:22;;;;;;;6.75;4.32;;;21.00;49.60;;;;;;5080304;28;20051;-64
2021/03/01 08:56:27;;;;;;;7.38;4.30;;;19.60;50.70;;;;;;5081224;28;20063;-64
2021/03/01 08:59:37;;;;;;;5.90;4.43;;;18.80;51.30;;;;;;5072829;28;20063;-64
2021/03/01 09:02:41;;;;;;;7.72;4.55;;;21.30;48.50;;;;;;5073068;28;20379;-64
2021/03/01 09:05:47;;;;;;;7.43;4.50;;;21.00;48.40;;;;;;5076022;28;20031;-64
2021/03/01 09:08:54;;;;;;;7.68;5.22;;;20.00;48.90;;;;;;5073169;28;20590;-64
2021/03/01 09:11:58;;;;;;;7.65;4.93;;;20.80;49.00;;;;;;5077047;28;20039;-64
2021/03/01 09:15:04;;;;;;;8.68;4.35;;;20.20;48.70;;;;;;5081677;28;20081;-64
2021/03/01 09:18:09;;;;;;;6.43;4.80;;;22.80;46.90;;;;;;5080092;28;20360;-64
2021/03/01 09:21:16;;;;;;;7.65;4.90;;;25.10;45.10;;;;;;5083500;28;20089;-64
2021/03/01 09:24:20;;;;;;;6.32;4.43;;;26.60;43.60;;;;;;5077036;28;20039;-64
2021/03/01 09:27:33;;;;;;;5.97;4.13;;;22.20;42.60;;;;;;5082653;28;20224;-64
2021/03/01 09:30:38;;;;;;;6.20;4.10;;;24.10;42.90;;;;;;5079284;28;20549;-63
2021/03/01 09:33:43;;;;;;;5.30;3.88;;;23.90;44.40;;;;;;5077955;28;20429;-63
2021/03/01 09:36:48;;;;;;;9.23;3.88;;;24.50;42.50;;;;;;5077948;28;20058;-63
2021/03/01 09:39:53;;;;;;;6.65;3.80;;;24.70;42.60;;;;;;5088321;28;20047;-63
2021/03/01 09:43:04;;;;;;;6.95;3.30;;;26.60;40.90;;;;;;5081370;28;20398;-63
2021/03/01 09:46:08;;;;;;;7.47;3.83;;;28.60;39.10;;;;;;5077017;28;20502;-63
2021/03/01 09:49:13;;;;;;;7.03;3.80;;;28.00;38.10;;;;;;5078025;28;20063;-63
2021/03/01 09:52:20;;;;;;;9.50;4.18;;;27.30;40.40;;;;;;5082127;28;20505;-63
2021/03/01 09:55:25;;;;;;;8.32;4.85;;;26.80;40.20;;;;;;5076418;28;20043;-63
2021/03/01 09:58:31;;;;;;;9.75;4.10;;;26.50;39.80;;;;;;5073407;28;20051;-64
2021/03/01 10:01:36;;;;;;;10.82;4.22;;;26.40;37.50;;;;;;5072086;28;20051;-63
2021/03/01 10:04:41;;;;;;;6.70;4.25;;;27.40;40.30;;;;;;5075551;28;20414;-63
2021/03/01 10:07:54;;;;;;;7.05;4.47;;;26.10;39.90;;;;;;5073969;28;20043;-63
2021/03/01 10:10:58;;;;;;;7.05;3.88;;;26.20;38.30;;;;;;5078299;28;20043;-63
2021/03/01 10:14:07;;;;;;;6.13;4.10;;;25.70;39.20;;;;;;5074743;28;20494;-64
2021/03/01 10:17:20;;;;;;;6.72;3.78;;;27.90;37.20;;;;;;5073421;28;20103;-64
2021/03/01 10:20:24;;;;;;;6.28;4.25;;;28.40;37.70;;;;;;5080886;28;20040;-64
2021/03/01 10:23:38;;;;;;;5.32;3.30;;;30.20;36.80;;;;;;5079714;28;20044;-63
2021/03/01 10:27:00;;;;;;;8.23;3.00;;;27.00;35.80;;;;;;5075311;28;20521;-64
2021/03/01 10:30:05;;;;;;;5.10;3.05;;;29.10;36.70;;;;;;5080152;28;20048;-63
2021/03/01 10:33:11;;;;;;;5.22;3.10;;;30.70;34.90;;;;;;5074644;28;20403;-63
2021/03/01 10:36:15;;;;;;;5.63;3.10;;;28.70;35.80;;;;;;5072276;28;20040;-63
2021/03/01 10:39:24;;;;;;;4.47;3.13;;;29.60;35.20;;;;;;5076693;28;20039;-63
2021/03/01 10:42:28;;;;;;;5.72;3.20;;;30.20;35.50;;;;;;5077637;28;20059;-63
2021/03/01 10:45:40;;;;;;;4.93;3.08;;;29.40;33.50;;;;;;5086849;28;20055;-63
2021/03/01 10:48:45;;;;;;;4.13;3.15;;;27.10;35.70;;;;;;5074105;28;20039;-63
2021/03/01 10:51:50;;;;;;;3.78;2.75;;;28.20;38.00;;;;;;5073542;28;20047;-63
2021/03/01 10:54:56;;;;;;;5.03;2.78;;;28.40;35.30;;;;;;5078980;28;20039;-63
2021/03/01 10:58:01;;;;;;;4.47;3.10;;;30.40;34.00;;;;;;5072976;28;20044;-63
2021/03/01 11:01:05;;;;;;;5.45;3.33;;;30.30;34.10;;;;;;5075358;28;20043;-64
2021/03/01 11:04:11;;;;;;;5.18;2.90;;;30.80;34.80;;;;;;5069047;28;20107;-63
2021/03/01 11:07:16;;;;;;;5.88;2.90;;;32.40;32.60;;;;;;5082312;28;20039;-63
2021/03/01 11:10:20;;;;;;;3.17;2.55;;;28.80;34.30;;;;;;5079512;28;20047;-63
2021/03/01 11:13:24;;;;;;;4.82;3.00;;;27.60;32.80;;;;;;5079693;28;20045;-63
2021/03/01 11:16:34;;;;;;;3.60;2.50;;;26.30;35.00;;;;;;5072755;28;20052;-63
2021/03/01 11:19:39;;;;;;;4.95;2.88;;;28.60;33.80;;;;;;5071097;28;20659;-63
2021/03/01 11:22:44;;;;;;;2.97;2.13;;;30.20;33.80;;;;;;5082999;28;20052;-63
2021/03/01 11:25:48;;;;;;;4.13;2.17;;;32.00;31.60;;;;;;5081247;28;20047;-64
2021/03/01 11:28:54;;;;;;;5.95;2.95;;;31.70;31.60;;;;;;5081104;28;20036;-63
2021/03/01 11:31:58;;;;;;;4.90;3.05;;;32.40;31.60;;;;;;5070995;28;20043;-63
2021/03/01 11:35:02;;;;;;;5.15;2.67;;;29.00;31.30;;;;;;5073484;28;20414;-63
2021/03/01 11:38:07;;;;;;;3.13;2.17;;;28.80;34.70;;;;;;5079194;28;20508;-63
2021/03/01 11:41:14;;;;;;;3.42;2.90;;;26.40;33.80;;;;;;5078003;28;20039;-63
2021/03/01 11:44:19;;;;;;;5.43;3.03;;;25.50;33.90;;;;;;5087490;28;20106;-64
2021/03/01 11:47:23;;;;;;;8.70;2.53;;;27.70;35.40;;;;;;5069072;28;20035;-64
2021/03/01 11:50:28;;;;;;;3.88;2.30;;;30.30;33.50;;;;;;5076993;28;20039;-64
2021/03/01 11:53:32;;;;;;;5.60;2.50;;;29.40;31.10;;;;;;5071705;28;20043;-64
2021/03/01 11:56:36;;;;;;;5.55;2.58;;;30.90;31.20;;;;;;5070012;28;20051;-64
2021/03/01 11:59:41;;;;;;;4.00;2.45;;;29.30;32.40;;;;;;5072761;28;20541;-64
2021/03/01 12:02:45;;;;;;;4.25;2.50;;;31.60;31.20;;;;;;5070555;28;20043;-63
2021/03/01 12:05:49;;;;;;;4.10;2.80;;;29.90;30.20;;;;;;5059710;28;20058;-64
2021/03/01 12:08:53;;;;;;;3.60;2.60;;;29.80;30.80;;;;;;5057463;28;20500;-64
2021/03/01 12:11:57;;;;;;;3.38;2.30;;;31.50;32.10;;;;;;5073052;28;20035;-63
2021/03/01 12:15:02;;;;;;;3.95;2.45;;;31.80;31.40;;;;;;5078163;28;20043;-62
2021/03/01 12:18:07;;;;;;;4.40;2.85;;;27.80;30.90;;;;;;5083413;28;20561;-64
2021/03/01 12:21:11;;;;;;;5.70;2.90;;;30.30;32.00;;;;;;5083601;28;20465;-63
2021/03/01 12:24:15;;;;;;;3.60;2.85;;;31.70;31.20;;;;;;5082280;28;21052;-63
2021/03/01 12:27:20;;;;;;;5.00;2.97;;;32.10;31.10;;;;;;5080802;28;20043;-62
2021/03/01 12:30:24;;;;;;;4.13;2.42;;;32.60;30.50;;;;;;5071342;28;20040;-63
2021/03/01 12:33:29;;;;;;;6.60;3.47;;;28.50;31.40;;;;;;5076442;28;20047;-63
2021/03/01 12:36:33;;;;;;;6.53;3.50;;;28.80;32.20;;;;;;5075633;28;20122;-63
2021/03/01 12:39:38;;;;;;;3.47;2.83;;;29.70;31.70;;;;;;5082004;28;20048;-63
2021/03/01 12:42:42;;;;;;;4.60;3.22;;;30.10;31.30;;;;;;5077385;28;20411;-63
2021/03/01 12:45:46;;;;;;;6.22;3.58;;;30.00;32.30;;;;;;5078889;28;20035;-64
2021/03/01 12:48:51;;;;;;;5.25;3.70;;;28.80;31.50;;;;;;5082346;28;20039;-63
2021/03/01 12:51:55;;;;;;;5.32;3.30;;;27.70;33.20;;;;;;5074577;28;20043;-63
2021/03/01 12:54:59;;;;;;;6.28;4.03;;;28.80;32.80;;;;;;5073351;28;20055;-63
2021/03/01 12:58:03;;;;;;;6.30;3.15;;;28.70;32.90;;;;;;5074936;28;20039;-63
2021/03/01 13:01:07;;;;;;;8.40;3.53;;;30.40;33.30;;;;;;5075500;28;20055;-62
2021/03/01 13:04:12;;;;;;;5.07;3.42;;;31.60;32.50;;;;;;5076677;28;20035;-63
2021/03/01 13:07:16;;;;;;;5.15;4.00;;;30.90;31.50;;;;;;5081175;28;20043;-63
2021/03/01 13:10:20;;;;;;;5.05;3.60;;;30.10;32.40;;;;;;5074142;28;20423;-64
2021/03/01 13:13:24;;;;;;;7.97;3.65;;;30.40;32.90;;;;;;5073030;28;20402;-63
2021/03/01 13:16:29;;;;;;;4.93;3.45;;;31.50;31.80;;;;;;5077992;28;20545;-63
2021/03/01 13:19:33;;;;;;;5.57;3.65;;;31.90;32.40;;;;;;5079879;28;20047;-63
2021/03/01 13:22:37;;;;;;;6.53;3.70;;;31.40;31.60;;;;;;5070088;28;20036;-63
2021/03/01 13:25:41;;;;;;;5.85;4.05;;;31.20;33.20;;;;;;5071028;28;20040;-63
2021/03/01 13:28:45;;;;;;;5.03;3.55;;;32.00;31.60;;;;;;5070749;28;20107;-63
2021/03/01 13:31:49;;;;;;;4.72;3.00;;;32.10;31.90;;;;;;5072927;28;20043;-62
2021/03/01 13:34:55;;;;;;;25.50;4.95;;;31.80;31.40;;;;;;5073814;28;20051;-63
2021/03/01 13:37:59;;;;;;;5.20;3.40;;;31.60;32.30;;;;;;5079768;28;20063;-63
2021/03/01 13:41:03;;;;;;;6.10;3.30;;;31.60;32.80;;;;;;5081358;28;20047;-64
2021/03/01 13:44:08;;;;;;;5.03;2.72;;;31.80;33.10;;;;;;5075831;28;20036;-64
2021/03/01 13:47:12;;;;;;;6.45;3.15;;;32.00;32.60;;;;;;5080028;28;20066;-64
2021/03/01 13:50:20;;;;;;;7.97;3.55;;;33.00;32.40;;;;;;5077857;28;20055;-64
2021/03/01 13:53:24;;;;;;;4.63;3.00;;;33.60;31.50;;;;;;5075567;28;20044;-64
2021/03/01 13:56:28;;;;;;;4.38;3.38;;;32.50;32.00;;;;;;5077754;28;20052;-64
2021/03/01 13:59:32;;;;;;;5.45;3.45;;;31.60;32.30;;;;;;5081730;28;20638;-64
2021/03/01 14:02:36;;;;;;;5.25;3.00;;;31.90;33.10;;;;;;5080686;28;20044;-64
2021/03/01 14:05:43;;;;;;;5.03;3.47;;;32.00;31.70;;;;;;5070547;28;20039;-63
2021/03/01 14:08:48;;;;;;;4.25;3.30;;;32.20;32.50;;;;;;5070072;28;20040;-64
2021/03/01 14:11:52;;;;;;;4.55;2.70;;;31.70;32.50;;;;;;5070283;28;20044;-64
2021/03/01 14:14:57;;;;;;;3.95;3.05;;;30.90;32.90;;;;;;5074651;28;20047;-63
2021/03/01 14:18:01;;;;;;;4.40;3.10;;;31.30;32.90;;;;;;5075272;28;20047;-64
2021/03/01 14:21:06;;;;;;;4.82;2.67;;;30.90;33.70;;;;;;5071035;28;20043;-64
2021/03/01 14:24:12;;;;;;;5.45;3.40;;;29.60;31.90;;;;;;5084739;28;20035;-63
2021/03/01 14:27:17;;;;;;;5.03;3.53;;;28.80;32.90;;;;;;5071450;28;20056;-63
2021/03/01 14:30:22;;;;;;;5.75;3.25;;;27.20;35.50;;;;;;5070245;28;20039;-63
2021/03/01 14:33:26;;;;;;;4.88;3.45;;;28.30;34.10;;;;;;5083674;28;20510;-63
2021/03/01 14:36:31;;;;;;;4.80;3.40;;;27.90;35.20;;;;;;5080039;28;20039;-63
2021/03/01 14:39:35;;;;;;;4.10;3.42;;;27.90;33.60;;;;;;5068664;28;20505;-63
2021/03/01 14:42:39;;;;;;;5.22;3.80;;;27.30;35.50;;;;;;5074481;28;20044;-63
2021/03/01 14:45:44;;;;;;;5.65;3.90;;;25.70;35.80;;;;;;5073095;28;20055;-63
2021/03/01 14:48:48;;;;;;;4.63;3.60;;;23.80;36.60;;;;;;5081874;28;20514;-63
2021/03/01 14:51:53;;;;;;;6.05;3.17;;;25.10;36.90;;;;;;5083243;28;20059;-63
2021/03/01 14:54:57;;;;;;;6.82;3.45;;;26.60;36.70;;;;;;5078567;28;20047;-63
2021/03/01 14:58:01;;;;;;;4.72;3.00;;;27.50;36.20;;;;;;5073405;28;20035;-63
2021/03/01 15:01:05;;;;;;;4.78;3.20;;;28.20;35.80;;;;;;5077748;28;20048;-63
2021/03/01 15:04:10;;;;;;;7.25;3.08;;;28.70;34.80;;;;;;5077116;28;20035;-63
2021/03/01 15:07:15;;;;;;;6.45;3.95;;;27.00;35.20;;;;;;5071511;28;20047;-63
2021/03/01 15:10:19;;;;;;;4.93;3.63;;;26.00;34.60;;;;;;5077618;28;20043;-62
2021/03/01 15:13:25;;;;;;;7.38;5.30;;;23.70;37.60;;;;;;5071352;28;20810;-63
2021/03/01 15:16:29;;;;;;;8.20;4.30;;;24.50;37.20;;;;;;5071237;28;20411;-63
2021/03/01 15:19:33;;;;;;;12.15;6.03;;;24.40;36.90;;;;;;5069742;28;20557;-63
2021/03/01 15:22:37;;;;;;;6.22;4.30;;;24.40;37.40;;;;;;5072155;28;20428;-63
2021/03/01 15:25:42;;;;;;;7.20;4.55;;;24.20;37.30;;;;;;5081182;28;20048;-63
2021/03/01 15:28:46;;;;;;;7.13;5.05;;;24.40;37.40;;;;;;5076761;28;20043;-64
2021/03/01 15:31:51;;;;;;;8.32;4.75;;;23.80;37.90;;;;;;5075698;28;20046;-65
2021/03/01 15:34:55;;;;;;;6.10;4.28;;;23.50;38.30;;;;;;5071859;28;20047;-64
2021/03/01 15:37:59;;;;;;;6.15;3.95;;;23.40;38.40;;;;;;5079413;28;20051;-64
2021/03/01 15:41:04;;;;;;;6.85;4.25;;;23.00;39.20;;;;;;5077620;28;20048;-64
2021/03/01 15:44:09;;;;;;;7.03;4.03;;;22.30;41.10;;;;;;5080797;28;20411;-65
2021/03/01 15:47:15;;;;;;;6.15;3.90;;;22.20;41.60;;;;;;5079239;28;20038;-65
2021/03/01 15:50:23;;;;;;;4.95;3.80;;;22.30;41.20;;;;;;5073749;28;20048;-65
2021/03/01 15:53:27;;;;;;;6.28;3.70;;;22.40;40.40;;;;;;5079143;28;20070;-64
2021/03/01 15:56:31;;;;;;;5.05;3.28;;;22.40;40.60;;;;;;5077673;28;20043;-64
2021/03/01 15:59:36;;;;;;;5.18;3.35;;;21.90;41.50;;;;;;5073534;28;20051;-64
2021/03/01 16:02:40;;;;;;;5.10;3.50;;;21.70;41.70;;;;;;5077501;28;20052;-64
2021/03/01 16:05:45;;;;;;;5.93;3.85;;;21.30;42.60;;;;;;5072273;28;20522;-64
2021/03/01 16:08:49;;;;;;;5.45;3.45;;;21.00;42.10;;;;;;5075019;28;20047;-64